Aérodrome :
LOGIN :

S'inscrire | Disclaimer

   EN    FR    IT 

 










Légende :    VFR   VFR Marginal   IFR   IFR Intensif   IFR Très Intensif
Visi : 
Plafond : 
>= 8 km
>= 3000ft
5 à 8 km
1000 à 3000 ft
1500m à 5 km
500 à 1000 ft
800 à 1500m
200 à 500 ft
< 800m
< 200 ft
Symboles :   Orages  Brouillard  Fortes neiges  Fortes précipitations  Vent > 20 kt
SIGMETs :   Divers  Orages  Givrage  Turbulence  Onde Orograph.  Cendres Volcan.







- Altitude de l'aérodrome : 1234 ft
- Code IATA : LUX


ELLX - Luxembourg Findel

DERNIER METAR :
  • 280020Z AUTO 01006KT 9999 FEW051/// 02/M01 Q1014 NOSIG

METARs EXPIRÉS :
  • 272350Z 35006KT CAVOK 02/M01 Q1014 NOSIG
  • 272320Z 35004KT CAVOK 03/M01 Q1015 NOSIG
  • 272250Z 35003KT CAVOK 03/M01 Q1015 NOSIG
  • 272220Z 01007KT 320V040 CAVOK 04/M01 Q1015 NOSIG
  • 272150Z 36009KT CAVOK 04/M01 Q1015 NOSIG

TAF TAF ELLX
Valide du 28 à 00h jusqu'au 29 à 06h UTC


272300Z 2800/2906 01005KT CAVOK
BECMG 2809/2812 30010KT 9999 BKN020
TEMPO 2809/2813 4000 -RA -RADZ SCT007 BKN012
BECMG 2813/2816 SCT025
TEMPO 2813/2820 6000 -SHRA BKN015TCU
ATIS : +352 4798 27300
Météo : +352 4798 27010 / 27050
Pas de NOTAMs connus pour ce terrain.



MET'MAP, la Météo Aéronautique d'un coup d'oeil ! - Copyright ORBIFLY Décembre 2007 - Disclaimer

ORBIFLY MET'MAP TEAM :

Programmation & Développement : Alexandra Zaïnal
Conception & Développement : Baudouin d'Aumeries
Co-Programmation & Développement : Marc-Olivier Méhu
Soutien technique & logistique : Manuel Goepfert

Contact : metmap@orbifly.com




SOURCES & CREDITS :

   NOAA